createdAt,value
2023-02-13T00:01:01.172Z,98565.88
2023-02-13T00:02:03.065Z,98566.47
2023-02-13T00:03:05.230Z,98566.19
2023-02-13T00:04:06.759Z,98573.00
2023-02-13T00:05:08.510Z,98564.84
2023-02-13T00:06:10.165Z,98567.69
2023-02-13T00:07:12.366Z,98574.59
2023-02-13T00:08:14.006Z,98576.66
2023-02-13T00:09:15.633Z,98571.38
2023-02-13T00:10:17.625Z,98578.28
2023-02-13T00:11:20.616Z,98582.53
2023-02-13T00:12:22.179Z,98585.19
2023-02-13T00:13:23.723Z,98582.97
2023-02-13T00:14:25.348Z,98585.63
2023-02-13T00:15:27.092Z,98585.06
2023-02-13T00:16:28.686Z,98584.97
2023-02-13T00:17:30.448Z,98588.06
2023-02-13T00:18:36.453Z,98583.56
2023-02-13T00:19:38.050Z,98586.00
2023-02-13T00:20:39.656Z,98588.63
2023-02-13T00:21:41.236Z,98588.41
2023-02-13T00:22:42.768Z,98590.25
2023-02-13T00:23:44.477Z,98586.56
2023-02-13T00:24:46.098Z,98579.69
2023-02-13T00:25:47.688Z,98587.59
2023-02-13T00:26:49.317Z,98583.34
2023-02-13T00:27:52.269Z,98587.59
2023-02-13T00:28:53.894Z,98585.78
2023-02-13T00:29:55.415Z,98588.63
2023-02-13T00:31:13.298Z,98584.59
2023-02-13T00:32:15.061Z,98593.59
2023-02-13T00:33:16.792Z,98586.91
2023-02-13T00:34:18.380Z,98577.84
2023-02-13T00:35:19.947Z,98582.31
2023-02-13T00:36:22.669Z,98583.94
2023-02-13T00:37:25.175Z,98583.72
2023-02-13T00:38:26.676Z,98588.41
2023-02-13T00:39:28.407Z,98585.19
2023-02-13T00:40:29.958Z,98591.75
2023-02-13T00:41:31.537Z,98587.72
2023-02-13T00:42:33.097Z,98578.75
2023-02-13T00:43:35.629Z,98581.97
2023-02-13T00:44:37.219Z,98579.91
2023-02-13T00:45:38.778Z,98571.84
2023-02-13T00:46:40.388Z,98574.75
2023-02-13T00:47:41.936Z,98574.75
2023-02-13T00:48:44.371Z,98573.94
2023-02-13T00:49:46.498Z,98574.94
2023-02-13T00:50:48.176Z,98575.41
2023-02-13T00:51:49.703Z,98578.44
2023-02-13T00:52:51.208Z,98576.53
2023-02-13T00:53:52.774Z,98581.84
2023-02-13T00:54:54.389Z,98577.47
2023-02-13T00:55:55.960Z,98575.84
2023-02-13T00:56:57.583Z,98589.25
2023-02-13T00:57:59.080Z,98586.19
2023-02-13T00:59:00.650Z,98578.13
2023-02-13T01:00:02.581Z,98586.94
2023-02-13T01:01:04.252Z,98583.34
2023-02-13T01:02:05.794Z,98583.69
2023-02-13T01:03:07.620Z,98582.81
2023-02-13T01:04:09.232Z,98587.56
2023-02-13T01:05:10.823Z,98582.66
2023-02-13T01:06:12.527Z,98586.22
2023-02-13T01:07:15.768Z,98582.47
2023-02-13T01:08:19.394Z,98581.59
2023-02-13T01:09:20.928Z,98586.41
2023-02-13T01:10:22.591Z,98588.00
2023-02-13T01:11:24.234Z,98584.34
2023-02-13T01:12:25.950Z,98588.00
2023-02-13T01:13:27.702Z,98587.28
2023-02-13T01:14:29.270Z,98585.25
2023-02-13T01:15:31.130Z,98590.06
2023-02-13T01:16:32.686Z,98595.78
2023-02-13T01:17:34.274Z,98591.41
2023-02-13T01:18:35.859Z,98593.91
2023-02-13T01:19:37.451Z,98592.03
2023-02-13T01:20:38.998Z,98595.78
2023-02-13T01:21:40.522Z,98600.41
2023-02-13T01:22:44.387Z,98599.75
2023-02-13T01:23:46.977Z,98603.84
2023-02-13T01:24:48.656Z,98602.31
2023-02-13T01:25:51.798Z,98606.84
2023-02-13T01:26:53.353Z,98601.50
2023-02-13T01:27:54.909Z,98606.41
2023-02-13T01:28:58.053Z,98603.00
2023-02-13T01:30:00.187Z,98600.66
2023-02-13T01:31:02.717Z,98606.94
2023-02-13T01:32:05.247Z,98609.28
2023-02-13T01:33:06.844Z,98603.69
2023-02-13T01:34:08.359Z,98606.16
2023-02-13T01:35:11.427Z,98604.97
2023-02-13T01:36:14.441Z,98604.75
2023-02-13T01:37:16.451Z,98610.66
2023-02-13T01:38:18.786Z,98612.28
2023-02-13T01:39:20.346Z,98613.09
2023-02-13T01:40:21.998Z,98617.09
2023-02-13T01:41:25.118Z,98619.16
2023-02-13T01:42:30.216Z,98617.53
2023-02-13T01:43:53.572Z,98619.19
2023-02-13T01:45:04.128Z,98618.88
2023-02-13T01:46:05.764Z,98613.97
2023-02-13T01:47:09.789Z,98619.00
2023-02-13T01:48:22.910Z,98614.47
2023-02-13T01:49:26.128Z,98613.22
2023-02-13T01:50:41.111Z,98612.59
2023-02-13T01:51:43.742Z,98610.56
2023-02-13T01:53:00.418Z,98615.84
2023-02-13T01:54:07.526Z,98617.53
2023-02-13T01:55:10.971Z,98611.13
2023-02-13T01:56:29.936Z,98611.66
2023-02-13T01:57:32.727Z,98611.38
2023-02-13T01:58:37.953Z,98613.53
2023-02-13T01:59:55.356Z,98613.97
2023-02-13T02:00:58.612Z,98617.00
2023-02-13T02:02:01.482Z,98619.16
2023-02-13T02:03:11.053Z,98613.06
2023-02-13T02:04:18.440Z,98618.28
2023-02-13T02:05:24.033Z,98619.47
2023-02-13T02:06:29.330Z,98615.41
2023-02-13T02:07:32.788Z,98623.44
2023-02-13T02:08:34.943Z,98617.72
2023-02-13T02:09:41.102Z,98621.38
2023-02-13T02:10:43.004Z,98616.88
2023-02-13T02:11:47.521Z,98622.03
2023-02-13T02:13:07.382Z,98629.50
2023-02-13T02:14:09.139Z,98630.22
2023-02-13T02:15:10.988Z,98635.28
2023-02-13T02:16:12.798Z,98632.22
2023-02-13T02:17:14.440Z,98631.34
2023-02-13T02:18:19.685Z,98633.13
2023-02-13T02:19:41.455Z,98632.16
2023-02-13T02:20:43.002Z,98633.59
2023-02-13T02:22:17.919Z,98630.66
2023-02-13T02:23:59.659Z,98637.41
2023-02-13T02:25:18.538Z,98632.47
2023-02-13T02:27:01.619Z,98628.34
2023-02-13T02:28:27.784Z,98629.97
2023-02-13T02:29:32.194Z,98632.75
2023-02-13T02:30:46.136Z,98628.66
2023-02-13T02:32:09.669Z,98633.88
2023-02-13T02:33:20.354Z,98635.84
2023-02-13T02:34:37.096Z,98639.22
2023-02-13T02:36:11.198Z,98637.75
2023-02-13T02:37:43.778Z,98638.50
2023-02-13T02:38:51.277Z,98645.41
2023-02-13T02:40:19.054Z,98644.94
2023-02-13T02:41:41.648Z,98648.97
2023-02-13T02:42:55.602Z,98647.13
2023-02-13T02:44:24.713Z,98649.34
2023-02-13T02:45:40.904Z,98652.56
2023-02-13T02:47:15.015Z,98649.69
2023-02-13T02:48:53.228Z,98652.13
2023-02-13T02:50:07.474Z,98653.28
2023-02-13T02:51:33.083Z,98655.94
2023-02-13T02:52:57.565Z,98659.16
2023-02-13T02:54:35.810Z,98661.81
2023-02-13T02:56:05.074Z,98659.72
2023-02-13T02:57:49.863Z,98661.34
2023-02-13T02:59:24.028Z,98659.31
2023-02-13T03:00:47.506Z,98667.06
2023-02-13T03:02:09.271Z,98666.03
2023-02-13T03:03:43.890Z,98670.00
2023-02-13T03:05:11.769Z,98667.22
2023-02-13T03:06:38.535Z,98667.72
2023-02-13T03:07:40.106Z,98669.19
2023-02-13T03:09:04.620Z,98667.94
2023-02-13T03:10:28.923Z,98671.03
2023-02-13T03:11:49.253Z,98674.25
2023-02-13T03:13:15.390Z,98675.84
2023-02-13T03:14:21.232Z,98680.53
2023-02-13T03:15:26.298Z,98677.97
2023-02-13T03:16:46.238Z,98680.25
2023-02-13T03:18:06.334Z,98679.66
2023-02-13T03:19:36.838Z,98676.25
2023-02-13T03:21:14.416Z,98689.38
2023-02-13T03:22:42.178Z,98690.16
2023-02-13T03:23:51.172Z,98693.19
2023-02-13T03:25:10.990Z,98692.59
2023-02-13T03:26:18.314Z,98690.22
2023-02-13T03:28:26.612Z,98692.69
2023-02-13T03:29:58.765Z,98688.97
2023-02-13T03:31:29.896Z,98692.75
2023-02-13T03:32:34.417Z,98696.88
2023-02-13T03:33:45.005Z,98693.75
2023-02-13T03:35:14.456Z,98693.75
2023-02-13T03:36:55.758Z,98705.13
2023-02-13T03:38:08.445Z,98701.50
2023-02-13T03:39:09.997Z,98706.31
2023-02-13T03:41:00.367Z,98702.66
2023-02-13T03:42:06.227Z,98702.63
2023-02-13T03:43:15.145Z,98703.41
2023-02-13T03:44:40.243Z,98695.91
2023-02-13T03:45:57.193Z,98690.81
2023-02-13T03:47:02.382Z,98700.16
2023-02-13T03:48:27.611Z,98705.59
2023-02-13T03:50:04.044Z,98706.63
2023-02-13T03:51:08.689Z,98701.22
2023-02-13T03:52:23.263Z,98704.84
2023-02-13T03:53:27.329Z,98709.84
2023-02-13T03:54:53.797Z,98707.03
2023-02-13T03:56:16.718Z,98715.91
2023-02-13T03:57:39.865Z,98707.47
2023-02-13T03:59:05.318Z,98703.84
2023-02-13T04:00:11.168Z,98710.34
2023-02-13T04:01:16.955Z,98707.91
2023-02-13T04:02:24.541Z,98709.47
2023-02-13T04:03:35.605Z,98713.53
2023-02-13T04:04:49.948Z,98715.13
2023-02-13T04:06:14.120Z,98712.69
2023-02-13T04:07:29.617Z,98713.91
2023-02-13T04:08:31.331Z,98711.47
2023-02-13T04:09:37.465Z,98707.03
2023-02-13T04:10:50.295Z,98715.16
2023-02-13T04:12:03.349Z,98718.41
2023-02-13T04:13:13.314Z,98722.47
2023-02-13T04:14:22.002Z,98716.41
2023-02-13T04:15:33.723Z,98719.59
2023-02-13T04:16:42.635Z,98712.28
2023-02-13T04:17:50.236Z,98712.44
2023-02-13T04:18:53.162Z,98707.78
2023-02-13T04:19:54.928Z,98715.91
2023-02-13T04:20:56.816Z,98714.72
2023-02-13T04:22:01.231Z,98727.44
2023-02-13T04:23:08.720Z,98718.56
2023-02-13T04:24:10.669Z,98723.16
2023-02-13T04:25:13.964Z,98722.34
2023-02-13T04:26:19.607Z,98721.13
2023-02-13T04:27:21.199Z,98722.00
2023-02-13T04:28:22.869Z,98719.78
2023-02-13T04:29:25.973Z,98720.41
2023-02-13T04:30:27.601Z,98724.88
2023-02-13T04:31:29.208Z,98721.63
2023-02-13T04:32:30.811Z,98722.19
2023-02-13T04:33:32.349Z,98718.13
2023-02-13T04:34:33.997Z,98721.09
2023-02-13T04:35:35.585Z,98719.47
2023-02-13T04:36:37.190Z,98721.09
2023-02-13T04:37:38.799Z,98730.34
2023-02-13T04:38:40.361Z,98724.88
2023-02-13T04:39:41.934Z,98722.25
2023-02-13T04:40:43.527Z,98731.53
2023-02-13T04:41:45.244Z,98728.97
2023-02-13T04:42:50.494Z,98727.91
2023-02-13T04:43:52.585Z,98729.31
2023-02-13T04:44:54.151Z,98735.56
2023-02-13T04:45:55.736Z,98719.78
2023-02-13T04:46:57.302Z,98725.63
2023-02-13T04:47:59.463Z,98726.41
2023-02-13T04:49:01.046Z,98731.84
2023-02-13T04:50:02.680Z,98731.59
2023-02-13T04:51:04.503Z,98728.56
2023-02-13T04:52:06.113Z,98728.13
2023-02-13T04:53:07.741Z,98728.94
2023-02-13T04:54:11.228Z,98727.50
2023-02-13T04:55:13.269Z,98726.31
2023-02-13T04:56:15.156Z,98729.41
2023-02-13T04:57:16.731Z,98724.31
2023-02-13T04:58:18.502Z,98729.75
2023-02-13T04:59:20.015Z,98731.75
2023-02-13T05:00:23.364Z,98740.63
2023-02-13T05:01:24.949Z,98734.72
2023-02-13T05:02:26.714Z,98737.13
2023-02-13T05:03:28.305Z,98739.34
2023-02-13T05:04:29.932Z,98739.72
2023-02-13T05:05:31.619Z,98742.75
2023-02-13T05:06:33.180Z,98741.97
2023-02-13T05:07:34.716Z,98745.88
2023-02-13T05:08:36.307Z,98746.28
2023-02-13T05:09:39.541Z,98738.38
2023-02-13T05:10:42.084Z,98742.44
2023-02-13T05:11:43.684Z,98743.84
2023-02-13T05:12:45.235Z,98743.84
2023-02-13T05:13:46.816Z,98747.16
2023-02-13T05:14:48.384Z,98739.75
2023-02-13T05:15:50.501Z,98746.69
2023-02-13T05:16:52.278Z,98734.97
2023-02-13T05:17:53.951Z,98751.19
2023-02-13T05:18:55.509Z,98751.59
2023-02-13T05:19:57.337Z,98754.22
2023-02-13T05:21:17.181Z,98752.22
2023-02-13T05:22:37.037Z,98752.66
2023-02-13T05:23:38.592Z,98756.34
2023-02-13T05:24:40.208Z,98753.09
2023-02-13T05:25:42.406Z,98755.91
2023-02-13T05:26:43.933Z,98749.38
2023-02-13T05:27:45.493Z,98751.19
2023-02-13T05:29:05.891Z,98752.56
2023-02-13T05:30:07.797Z,98749.75
2023-02-13T05:31:09.458Z,98756.25
2023-02-13T05:32:11.275Z,98755.28
2023-02-13T05:33:12.897Z,98756.31
2023-02-13T05:34:14.906Z,98759.94
2023-02-13T05:35:16.706Z,98756.09
2023-02-13T05:36:18.226Z,98764.94
2023-02-13T05:37:19.804Z,98757.47
2023-02-13T05:38:21.370Z,98758.72
2023-02-13T05:39:23.136Z,98756.91
2023-02-13T05:40:24.677Z,98761.16
2023-02-13T05:41:26.487Z,98763.00
2023-02-13T05:42:28.112Z,98768.91
2023-02-13T05:43:30.241Z,98769.75
2023-02-13T05:44:32.041Z,98764.69
2023-02-13T05:45:33.701Z,98766.13
2023-02-13T05:46:39.228Z,98764.91
2023-02-13T05:47:41.026Z,98770.16
2023-02-13T05:48:42.565Z,98767.72
2023-02-13T05:49:44.194Z,98764.44
2023-02-13T05:50:47.282Z,98762.63
2023-02-13T05:51:49.688Z,98770.88
2023-02-13T05:52:51.221Z,98765.19
2023-02-13T05:53:53.084Z,98770.00
2023-02-13T05:54:54.738Z,98769.78
2023-02-13T05:55:56.670Z,98766.09
2023-02-13T05:56:58.237Z,98771.91
2023-02-13T05:57:59.843Z,98762.19
2023-02-13T05:59:01.412Z,98780.78
2023-02-13T06:00:04.628Z,98766.41
2023-02-13T06:01:06.270Z,98771.03
2023-02-13T06:02:07.991Z,98771.84
2023-02-13T06:03:09.542Z,98772.22
2023-02-13T06:04:11.167Z,98770.16
2023-02-13T06:05:12.809Z,98766.53
2023-02-13T06:06:14.551Z,98769.31
2023-02-13T06:07:16.171Z,98777.00
2023-02-13T06:08:17.815Z,98772.47
2023-02-13T06:09:19.378Z,98767.97
2023-02-13T06:10:21.051Z,98765.50
2023-02-13T06:11:22.643Z,98769.94
2023-02-13T06:12:24.205Z,98765.22
2023-02-13T06:13:26.103Z,98775.59
2023-02-13T06:14:28.286Z,98774.75
2023-02-13T06:15:29.830Z,98779.78
2023-02-13T06:16:31.460Z,98771.81
2023-02-13T06:17:33.059Z,98779.66
2023-02-13T06:18:35.335Z,98779.03
2023-02-13T06:19:36.941Z,98778.66
2023-02-13T06:20:38.649Z,98779.81
2023-02-13T06:21:40.231Z,98773.94
2023-02-13T06:22:41.745Z,98776.44
2023-02-13T06:23:43.362Z,98777.88
2023-02-13T06:24:44.936Z,98780.97
2023-02-13T06:25:46.486Z,98772.63
2023-02-13T06:26:48.017Z,98771.81
2023-02-13T06:27:49.625Z,98775.41
2023-02-13T06:28:51.540Z,98770.53
2023-02-13T06:29:53.148Z,98771.28
2023-02-13T06:30:54.883Z,98772.03
2023-02-13T06:31:57.528Z,98776.44
2023-02-13T06:32:59.375Z,98774.78
2023-02-13T06:34:01.038Z,98779.59
2023-02-13T06:35:05.228Z,98776.16
2023-02-13T06:36:07.560Z,98777.97
2023-02-13T06:37:09.262Z,98779.16
2023-02-13T06:38:10.811Z,98779.75
2023-02-13T06:39:12.404Z,98781.63
2023-02-13T06:40:14.965Z,98778.03
2023-02-13T06:41:16.674Z,98778.94
2023-02-13T06:42:18.915Z,98784.81
2023-02-13T06:43:23.294Z,98779.94
2023-02-13T06:44:24.924Z,98777.47
2023-02-13T06:45:26.519Z,98781.09
2023-02-13T06:46:28.143Z,98780.19
2023-02-13T06:47:29.957Z,98786.53
2023-02-13T06:48:31.523Z,98784.38
2023-02-13T06:49:33.042Z,98787.13
2023-02-13T06:50:34.751Z,98790.72
2023-02-13T06:51:36.424Z,98786.25
2023-02-13T06:52:38.086Z,98790.63
2023-02-13T06:53:39.769Z,98789.44
2023-02-13T06:54:47.759Z,98788.22
2023-02-13T06:55:49.611Z,98785.72
2023-02-13T06:56:51.352Z,98787.25
2023-02-13T06:57:52.914Z,98787.69
2023-02-13T06:58:54.467Z,98788.56
2023-02-13T06:59:55.990Z,98788.78
2023-02-13T07:00:57.881Z,98786.78
2023-02-13T07:01:59.655Z,98792.31
2023-02-13T07:03:03.420Z,98789.94
2023-02-13T07:04:05.027Z,98792.63
2023-02-13T07:05:07.224Z,98790.59
2023-02-13T07:06:08.784Z,98796.59
2023-02-13T07:07:10.399Z,98790.16
2023-02-13T07:08:13.162Z,98794.34
2023-02-13T07:09:14.803Z,98790.78
2023-02-13T07:10:16.506Z,98789.84
2023-02-13T07:11:19.615Z,98784.78
2023-02-13T07:12:21.377Z,98789.19
2023-02-13T07:13:23.306Z,98789.41
2023-02-13T07:14:25.237Z,98791.25
2023-02-13T07:15:27.335Z,98790.66
2023-02-13T07:16:29.476Z,98786.88
2023-02-13T07:17:31.602Z,98792.84
2023-02-13T07:18:33.218Z,98790.28
2023-02-13T07:19:34.756Z,98792.50
2023-02-13T07:20:36.385Z,98786.88
2023-02-13T07:21:38.111Z,98785.25
2023-02-13T07:22:39.691Z,98791.91
2023-02-13T07:23:41.512Z,98784.44
2023-02-13T07:24:43.070Z,98782.78
2023-02-13T07:25:44.583Z,98783.09
2023-02-13T07:26:46.111Z,98788.59
2023-02-13T07:27:47.643Z,98784.63
2023-02-13T07:28:50.048Z,98782.38
2023-02-13T07:29:52.931Z,98782.25
2023-02-13T07:30:54.886Z,98791.16
2023-02-13T07:31:58.076Z,98787.28
2023-02-13T07:33:04.034Z,98787.38
2023-02-13T07:34:05.632Z,98791.72
2023-02-13T07:35:07.269Z,98793.66
2023-02-13T07:36:09.003Z,98782.91
2023-02-13T07:37:11.560Z,98784.84
2023-02-13T07:38:13.183Z,98783.06
2023-02-13T07:39:14.756Z,98785.19
2023-02-13T07:40:16.312Z,98788.53
2023-02-13T07:41:17.846Z,98784.22
2023-02-13T07:42:19.467Z,98792.72
2023-02-13T07:43:21.206Z,98786.78
2023-02-13T07:44:22.718Z,98789.03
2023-02-13T07:45:24.269Z,98787.81
2023-02-13T07:46:25.878Z,98786.94
2023-02-13T07:47:27.481Z,98781.31
2023-02-13T07:48:30.244Z,98791.25
2023-02-13T07:49:31.798Z,98786.16
2023-02-13T07:50:33.368Z,98787.25
2023-02-13T07:51:34.899Z,98781.09
2023-02-13T07:52:37.963Z,98783.75
2023-02-13T07:53:39.551Z,98787.50
2023-02-13T07:54:47.427Z,98785.31
2023-02-13T07:55:49.336Z,98791.59
2023-02-13T07:56:50.913Z,98789.84
2023-02-13T07:57:52.591Z,98785.25
2023-02-13T07:58:54.192Z,98791.38
2023-02-13T07:59:55.733Z,98786.41
2023-02-13T08:00:57.344Z,98793.34
2023-02-13T08:01:58.918Z,98786.50
2023-02-13T08:03:01.648Z,98782.34
2023-02-13T08:04:03.458Z,98787.63
2023-02-13T08:05:05.512Z,98783.75
2023-02-13T08:06:08.042Z,98790.97
2023-02-13T08:07:09.613Z,98785.84
2023-02-13T08:08:11.227Z,98779.78
2023-02-13T08:09:39.748Z,98782.53
2023-02-13T08:11:00.650Z,98784.81
2023-02-13T08:12:02.276Z,98781.50
2023-02-13T08:13:04.935Z,98777.16
2023-02-13T08:14:06.441Z,98778.28
2023-02-13T08:15:12.066Z,98780.88
2023-02-13T08:16:13.632Z,98780.31
2023-02-13T08:17:15.252Z,98775.47
2023-02-13T08:18:18.899Z,98781.81
2023-02-13T08:19:21.487Z,98782.78
2023-02-13T08:20:24.074Z,98775.56
2023-02-13T08:21:25.713Z,98779.72
2023-02-13T08:22:27.268Z,98775.88
2023-02-13T08:23:29.094Z,98779.69
2023-02-13T08:24:30.683Z,98776.22
2023-02-13T08:25:33.370Z,98784.78
2023-02-13T08:26:35.167Z,98789.63
2023-02-13T08:27:36.845Z,98793.44
2023-02-13T08:28:38.455Z,98791.03
2023-02-13T08:29:40.081Z,98787.47
2023-02-13T08:30:41.794Z,98796.00
2023-02-13T08:31:43.859Z,98782.72
2023-02-13T08:32:54.510Z,98788.22
2023-02-13T08:33:57.614Z,98787.75
2023-02-13T08:34:59.179Z,98779.34
2023-02-13T08:36:03.688Z,98777.44
2023-02-13T08:37:05.267Z,98777.75
2023-02-13T08:38:06.902Z,98783.69
2023-02-13T08:39:09.961Z,98778.56
2023-02-13T08:40:11.798Z,98782.28
2023-02-13T08:41:14.139Z,98781.66
2023-02-13T08:42:16.391Z,98783.91
2023-02-13T08:43:18.135Z,98775.81
2023-02-13T08:44:19.705Z,98786.47
2023-02-13T08:45:21.271Z,98780.69
2023-02-13T08:46:23.135Z,98771.03
2023-02-13T08:47:24.697Z,98780.06
2023-02-13T08:48:29.812Z,98770.75
2023-02-13T08:49:31.360Z,98775.16
2023-02-13T08:50:33.628Z,98778.13
2023-02-13T08:51:36.180Z,98771.38
2023-02-13T08:52:37.690Z,98763.03
2023-02-13T08:53:40.178Z,98765.13
2023-02-13T08:54:41.723Z,98766.16
2023-02-13T08:55:43.262Z,98771.16
2023-02-13T08:56:44.858Z,98769.09
2023-02-13T08:57:46.591Z,98761.69
2023-02-13T08:58:50.131Z,98761.84
2023-02-13T08:59:51.745Z,98768.88
2023-02-13T09:00:53.321Z,98775.03
2023-02-13T09:01:54.902Z,98773.13
2023-02-13T09:03:03.984Z,98768.88
2023-02-13T09:04:05.810Z,98772.84
2023-02-13T09:05:07.515Z,98768.00
2023-02-13T09:06:09.102Z,98769.19
2023-02-13T09:07:10.735Z,98771.84
2023-02-13T09:08:13.718Z,98767.78
2023-02-13T09:09:16.146Z,98769.56
2023-02-13T09:10:18.331Z,98761.03
2023-02-13T09:11:22.944Z,98764.63
2023-02-13T09:12:24.553Z,98757.84
2023-02-13T09:13:26.297Z,98757.56
2023-02-13T09:14:27.866Z,98760.81
2023-02-13T09:15:30.127Z,98750.63
2023-02-13T09:16:31.896Z,98753.06
2023-02-13T09:17:33.532Z,98758.03
2023-02-13T09:18:35.461Z,98748.69
2023-02-13T09:19:37.071Z,98748.78
2023-02-13T09:20:38.641Z,98752.41
2023-02-13T09:21:40.313Z,98743.53
2023-02-13T09:22:42.122Z,98750.31
2023-02-13T09:23:44.012Z,98745.44
2023-02-13T09:24:45.601Z,98753.34
2023-02-13T09:25:47.229Z,98739.34
2023-02-13T09:26:48.956Z,98749.81
2023-02-13T09:27:50.520Z,98751.59
2023-02-13T09:28:52.077Z,98740.97
2023-02-13T09:29:53.654Z,98745.78
2023-02-13T09:30:55.412Z,98748.84
2023-02-13T09:31:57.359Z,98740.97
2023-02-13T09:32:59.051Z,98748.84
2023-02-13T09:34:00.640Z,98747.41
2023-02-13T09:35:02.232Z,98745.63
2023-02-13T09:36:24.541Z,98750.53
2023-02-13T09:37:27.131Z,98754.38
2023-02-13T09:38:28.683Z,98745.03
2023-02-13T09:39:30.316Z,98744.06
2023-02-13T09:40:42.600Z,98741.25
2023-02-13T09:41:47.322Z,98740.41
2023-02-13T09:42:50.178Z,98736.69
2023-02-13T09:44:06.460Z,98737.09
2023-02-13T09:45:12.304Z,98738.75
2023-02-13T09:46:40.640Z,98738.56
2023-02-13T09:47:45.197Z,98736.25
2023-02-13T09:48:56.150Z,98731.81
2023-02-13T09:50:23.081Z,98731.72
2023-02-13T09:51:27.837Z,98733.13
2023-02-13T09:52:33.627Z,98730.28
2023-02-13T09:53:36.355Z,98737.03
2023-02-13T09:54:38.100Z,98728.44
2023-02-13T09:55:53.014Z,98729.50
2023-02-13T09:57:16.399Z,98729.25
2023-02-13T09:58:27.143Z,98720.53
2023-02-13T10:00:04.053Z,98723.94
2023-02-13T10:01:17.684Z,98723.19
2023-02-13T10:02:43.041Z,98715.78
2023-02-13T10:04:11.613Z,98714.56
2023-02-13T10:05:31.767Z,98703.38
2023-02-13T10:06:50.054Z,98704.31
2023-02-13T10:08:16.528Z,98703.81
2023-02-13T10:09:41.152Z,98690.28
2023-02-13T10:10:45.289Z,98700.28
2023-02-13T10:12:16.099Z,98700.63
2023-02-13T10:13:39.702Z,98702.31
2023-02-13T10:14:47.361Z,98699.94
2023-02-13T10:16:07.698Z,98691.97
2023-02-13T10:17:18.777Z,98683.50
2023-02-13T10:18:25.809Z,98686.94
2023-02-13T10:19:55.388Z,98686.13
2023-02-13T10:21:02.335Z,98681.59
2023-02-13T10:22:26.064Z,98684.44
2023-02-13T10:23:34.340Z,98681.84
2023-02-13T10:24:38.976Z,98674.94
2023-02-13T10:25:58.651Z,98673.09
2023-02-13T10:27:05.252Z,98676.59
2023-02-13T10:28:13.461Z,98668.03
2023-02-13T10:29:51.262Z,98662.19
2023-02-13T10:30:56.941Z,98660.94
2023-02-13T10:32:02.267Z,98663.88
2023-02-13T10:33:21.653Z,98663.47
2023-02-13T10:34:27.332Z,98656.06
2023-02-13T10:35:31.434Z,98655.59
2023-02-13T10:36:37.686Z,98659.44
2023-02-13T10:37:39.316Z,98658.72
2023-02-13T10:38:56.826Z,98638.91
2023-02-13T10:39:58.470Z,98642.63
2023-02-13T10:41:10.647Z,98643.69
2023-02-13T10:42:24.683Z,98641.09
2023-02-13T10:43:30.124Z,98637.41
2023-02-13T10:44:41.251Z,98632.16
2023-02-13T10:45:45.509Z,98625.81
2023-02-13T10:46:58.915Z,98625.03
2023-02-13T10:48:14.796Z,98628.28
2023-02-13T10:49:18.819Z,98627.28
2023-02-13T10:50:34.459Z,98613.72
2023-02-13T10:52:00.821Z,98623.59
2023-02-13T10:53:32.142Z,98619.91
2023-02-13T10:55:07.529Z,98621.41
2023-02-13T10:56:25.653Z,98614.13
2023-02-13T10:57:55.695Z,98614.72
2023-02-13T10:59:19.623Z,98611.41
2023-02-13T11:00:43.301Z,98604.00
2023-02-13T11:01:52.733Z,98607.31
2023-02-13T11:02:56.347Z,98604.66
2023-02-13T11:04:13.552Z,98606.25
2023-02-13T11:05:30.359Z,98597.25
2023-02-13T11:06:34.728Z,98600.19
2023-02-13T11:07:39.214Z,98596.22
2023-02-13T11:08:47.637Z,98594.63
2023-02-13T11:09:51.873Z,98588.81
2023-02-13T11:10:53.658Z,98586.69
2023-02-13T11:11:55.306Z,98582.44
2023-02-13T11:12:56.852Z,98580.88
2023-02-13T11:14:12.597Z,98580.75
2023-02-13T11:15:40.365Z,98574.34
2023-02-13T11:17:05.922Z,98574.88
2023-02-13T11:18:19.389Z,98578.38
2023-02-13T11:19:37.506Z,98574.06
2023-02-13T11:20:44.680Z,98573.28
2023-02-13T11:21:47.679Z,98568.56
2023-02-13T11:22:49.436Z,98564.84
2023-02-13T11:23:53.573Z,98561.66
2023-02-13T11:25:00.699Z,98563.81
2023-02-13T11:26:13.277Z,98559.03
2023-02-13T11:27:15.071Z,98550.53
2023-02-13T11:28:21.067Z,98559.59
2023-02-13T11:29:26.959Z,98551.59
2023-02-13T11:30:36.734Z,98549.94
2023-02-13T11:31:38.669Z,98547.16
2023-02-13T11:32:40.472Z,98546.09
2023-02-13T11:33:42.705Z,98541.31
2023-02-13T11:34:45.449Z,98541.34
2023-02-13T11:35:48.077Z,98535.22
2023-02-13T11:36:54.533Z,98537.66
2023-02-13T11:38:20.869Z,98535.28
2023-02-13T11:39:26.850Z,98538.75
2023-02-13T11:40:32.449Z,98530.75
2023-02-13T11:41:42.317Z,98531.03
2023-02-13T11:42:48.033Z,98524.63
2023-02-13T11:44:02.073Z,98526.47
2023-02-13T11:45:19.843Z,98522.25
2023-02-13T11:46:25.458Z,98524.91
2023-02-13T11:47:42.326Z,98516.63
2023-02-13T11:48:55.777Z,98519.59
2023-02-13T11:49:57.390Z,98510.56
2023-02-13T11:50:59.386Z,98519.88
2023-02-13T11:52:23.012Z,98509.75
2023-02-13T11:53:31.502Z,98508.94
2023-02-13T11:54:35.247Z,98510.56
2023-02-13T11:55:39.753Z,98507.88
2023-02-13T11:57:07.369Z,98505.75
2023-02-13T11:58:11.861Z,98502.00
2023-02-13T11:59:14.218Z,98500.16
2023-02-13T12:00:37.830Z,98495.88
2023-02-13T12:01:39.463Z,98498.81
2023-02-13T12:02:48.047Z,98494.56
2023-02-13T12:04:18.502Z,98494.56
2023-02-13T12:05:22.882Z,98492.94
2023-02-13T12:06:24.405Z,98492.41
2023-02-13T12:07:31.036Z,98484.94
2023-02-13T12:08:35.615Z,98484.16
2023-02-13T12:09:40.197Z,98482.28
2023-02-13T12:10:41.875Z,98477.75
2023-02-13T12:11:48.330Z,98484.94
2023-02-13T12:13:06.048Z,98487.06
2023-02-13T12:14:14.056Z,98480.66
2023-02-13T12:15:22.440Z,98476.94
2023-02-13T12:16:29.424Z,98476.41
2023-02-13T12:17:33.089Z,98471.06
2023-02-13T12:18:38.810Z,98464.13
2023-02-13T12:19:43.879Z,98460.38
2023-02-13T12:21:11.435Z,98462.78
2023-02-13T12:22:21.911Z,98457.66
2023-02-13T12:23:29.556Z,98452.84
2023-02-13T12:25:16.543Z,98456.56
2023-02-13T12:26:50.525Z,98449.91
2023-02-13T12:28:35.487Z,98443.78
2023-02-13T12:29:55.756Z,98434.19
2023-02-13T12:31:09.424Z,98442.47
2023-02-13T12:32:19.229Z,98439.53
2023-02-13T12:33:36.874Z,98442.72
2023-02-13T12:35:15.897Z,98438.97
2023-02-13T12:36:23.502Z,98430.47
2023-02-13T12:37:59.161Z,98434.41
2023-02-13T12:39:26.244Z,98431.22
2023-02-13T12:40:42.930Z,98425.63
2023-02-13T12:41:50.448Z,98430.94
2023-02-13T12:43:07.719Z,98416.53
2023-02-13T12:44:33.650Z,98418.97
2023-02-13T12:45:43.541Z,98419.00
2023-02-13T12:47:06.489Z,98403.47
2023-02-13T12:48:48.291Z,98414.97
2023-02-13T12:50:06.483Z,98414.13
2023-02-13T12:51:26.890Z,98408.53
2023-02-13T12:53:01.378Z,98401.84
2023-02-13T12:54:21.367Z,98398.88
2023-02-13T12:56:00.482Z,98406.31
2023-02-13T12:57:23.358Z,98404.22
2023-02-13T12:58:38.481Z,98400.72
2023-02-13T13:00:15.494Z,98398.88
2023-02-13T13:01:44.601Z,98393.03
2023-02-13T13:02:57.258Z,98392.75
2023-02-13T13:04:07.975Z,98386.38
2023-02-13T13:05:24.775Z,98391.97
2023-02-13T13:06:35.567Z,98386.06
2023-02-13T13:08:00.651Z,98374.31
2023-02-13T13:09:23.571Z,98383.84
2023-02-13T13:10:35.987Z,98380.66
2023-02-13T13:11:59.010Z,98368.38
2023-02-13T13:13:27.929Z,98374.16
2023-02-13T13:14:48.312Z,98375.25
2023-02-13T13:16:04.846Z,98371.00
2023-02-13T13:17:34.136Z,98370.00